Time;durP1;ratioP1;P1;durP2;ratioP2;P2;SDS_P1;SDS_P2;PMS_P1;PMS_P2;Temp;Humidity;BMP_temperature;BMP_pressure;BME280_temperature;BME280_humidity;BME280_pressure;Samples;Min_cycle;Max_cycle;Signal;HPM_P1;HPM_P2
2022/01/30 00:00:15;;;;;;;248.85;237.07;;;;;;;8.11;59.13;100375.84;690887;28;13763;-69
2022/01/30 00:00:36;;;;;;;200.13;190.68;;;;;;;8.15;59.37;100344.09;689185;28;70113;-69
2022/01/30 00:00:59;;;;;;;172.00;163.80;;;;;;;8.20;59.69;100340.91;690242;28;46266;-69
2022/01/30 00:01:21;;;;;;;100.32;95.55;;;;;;;8.18;59.02;100343.75;688356;28;69352;-69
2022/01/30 00:01:42;;;;;;;10.85;10.45;;;;;;;8.15;58.89;100354.00;690890;28;1434;-69
2022/01/30 00:02:04;;;;;;;15.65;15.05;;;;;;;8.11;58.81;100332.81;690148;28;23499;-69
2022/01/30 00:02:25;;;;;;;10.23;9.90;;;;;;;8.12;59.52;100384.78;690230;28;46271;-69
2022/01/30 00:02:47;;;;;;;18.08;17.38;;;;;;;8.14;59.46;100353.16;691435;28;20483;-69
2022/01/30 00:03:08;;;;;;;41.55;39.75;;;;;;;8.12;59.29;100356.03;689911;28;44167;-69
2022/01/30 00:03:29;;;;;;;30.73;29.45;;;;;;;8.15;59.66;100364.75;691066;28;22402;-69
2022/01/30 00:03:51;;;;;;;20.73;19.92;;;;;;;8.11;59.42;100340.06;690860;28;20875;-69
2022/01/30 00:04:12;;;;;;;21.40;20.58;;;;;;;8.11;59.27;100358.88;689297;28;46349;-69
2022/01/30 00:04:33;;;;;;;18.58;17.88;;;;;;;8.07;59.21;100363.78;690583;28;22413;-69
2022/01/30 00:04:55;;;;;;;23.15;22.25;;;;;;;8.14;59.55;100363.09;691261;28;23542;-69
2022/01/30 00:05:16;;;;;;;21.93;21.07;;;;;;;8.10;59.15;100363.44;689336;28;46327;-69
2022/01/30 00:05:38;;;;;;;22.17;21.30;;;;;;;8.06;58.86;100345.94;689819;28;45279;-69
2022/01/30 00:05:59;;;;;;;38.22;36.63;;;;;;;8.05;58.86;100351.50;689576;28;46473;-69
2022/01/30 00:06:20;;;;;;;28.65;27.48;;;;;;;8.04;59.24;100352.50;690101;28;23483;-69
2022/01/30 00:06:43;;;;;;;22.17;21.30;;;;;;;8.09;59.58;100358.22;690378;28;22336;-69
2022/01/30 00:07:05;;;;;;;19.42;18.67;;;;;;;8.09;59.67;100337.53;688557;28;69342;-69
2022/01/30 00:07:27;;;;;;;29.85;28.65;;;;;;;8.08;59.40;100343.09;692131;28;1620;-69
2022/01/30 00:07:50;;;;;;;32.47;31.13;;;;;;;8.03;59.27;100358.91;689735;28;45292;-69
2022/01/30 00:08:11;;;;;;;36.35;34.78;;;;;;;8.06;59.44;100356.69;689476;28;45275;-69
2022/01/30 00:08:32;;;;;;;36.92;35.30;;;;;;;8.05;59.71;100355.00;690483;28;39318;-69
2022/01/30 00:08:54;;;;;;;34.30;32.80;;;;;;;8.03;59.78;100359.72;691074;28;22313;-69
2022/01/30 00:09:18;;;;;;;32.65;31.25;;;;;;;8.04;59.93;100374.88;689372;28;46314;-69
2022/01/30 00:09:39;;;;;;;146.63;139.10;;;;;;;8.00;59.39;100359.25;688539;28;93051;-69
2022/01/30 00:10:00;;;;;;;800.63;750.53;;;;;;;8.02;59.65;100347.28;690622;28;22364;-69
2022/01/30 00:10:22;;;;;;;997.97;933.95;;;;;;;8.02;59.27;100349.16;690951;28;1556;-69
2022/01/30 00:10:45;;;;;;;1009.28;944.58;;;;;;;7.99;58.72;100353.00;690828;28;1298;-69
2022/01/30 00:11:12;;;;;;;486.85;457.90;;;;;;;7.97;58.87;100341.59;689435;28;47324;-69
2022/01/30 00:11:36;;;;;;;147.85;140.80;;;;;;;7.98;59.74;100359.41;685067;28;157539;-69
2022/01/30 00:12:02;;;;;;;116.25;110.85;;;;;;;7.98;59.92;100362.09;687665;28;92265;-69
2022/01/30 00:12:32;;;;;;;103.40;98.60;;;;;;;7.96;59.48;100361.41;687250;28;137933;-69
2022/01/30 00:12:56;;;;;;;78.32;74.75;;;;;;;7.96;59.89;100355.19;686842;28;137870;-69
2022/01/30 00:13:20;;;;;;;26.58;25.48;;;;;;;7.94;59.83;100342.75;685885;28;90736;-69
2022/01/30 00:13:41;;;;;;;39.35;37.67;;;;;;;7.92;59.67;100336.72;688155;28;93414;-69
2022/01/30 00:14:04;;;;;;;69.75;66.60;;;;;;;7.91;59.44;100348.47;690084;28;22402;-69
2022/01/30 00:14:28;;;;;;;65.45;62.47;;;;;;;7.90;59.42;100343.28;689612;28;67398;-69
2022/01/30 00:14:54;;;;;;;51.63;49.33;;;;;;;7.90;59.80;100345.97;687350;28;116176;-69
2022/01/30 00:15:16;;;;;;;56.38;53.83;;;;;;;7.90;60.11;100348.66;688387;28;90361;-69
2022/01/30 00:15:41;;;;;;;56.25;53.70;;;;;;;7.90;60.05;100362.13;689565;28;69372;-69
2022/01/30 00:16:07;;;;;;;11.45;11.07;;;;;;;7.95;60.66;100354.38;687693;28;115589;-69
2022/01/30 00:16:32;;;;;;;15.63;15.05;;;;;;;7.99;60.61;100347.63;685890;28;138902;-69
2022/01/30 00:16:59;;;;;;;38.05;36.40;;;;;;;8.03;60.73;100356.22;687468;28;115446;-69
2022/01/30 00:17:26;;;;;;;73.07;69.70;;;;;;;8.03;60.21;100348.97;685191;28;160571;-69
2022/01/30 00:17:52;;;;;;;80.18;76.50;;;;;;;8.01;60.04;100352.84;687755;28;137899;-69
2022/01/30 00:18:33;;;;;;;101.50;96.80;;;;;;;8.05;60.26;100354.19;687182;28;137809;-69
2022/01/30 00:19:01;;;;;;;53.55;51.17;;;;;;;8.04;59.74;100342.59;687424;28;136063;-69
2022/01/30 00:19:28;;;;;;;542.95;510.65;;;;;;;8.00;59.36;100354.69;686996;28;137957;-69
2022/01/30 00:19:55;;;;;;;991.90;927.78;;;;;;;8.01;59.33;100342.06;687288;28;138167;-69
2022/01/30 00:20:21;;;;;;;991.45;927.40;;;;;;;8.02;59.21;100351.84;685732;28;118867;-69
2022/01/30 00:20:46;;;;;;;982.65;919.65;;;;;;;8.00;59.35;100352.00;686231;28;138179;-69
2022/01/30 00:21:11;;;;;;;517.42;485.40;;;;;;;8.01;59.55;100350.16;687191;28;115981;-69
2022/01/30 00:21:38;;;;;;;283.70;268.63;;;;;;;7.98;58.89;100363.94;685547;28;156646;-69
2022/01/30 00:22:13;;;;;;;12.75;12.27;;;;;;;7.94;58.79;100355.38;687051;28;138409;-69
2022/01/30 00:22:45;;;;;;;570.60;536.05;;;;;;;7.89;58.83;100358.56;686873;28;137557;-69
2022/01/30 00:23:11;;;;;;;984.78;922.17;;;;;;;7.93;59.91;100362.59;686448;28;137753;-69
2022/01/30 00:23:35;;;;;;;812.30;760.65;;;;;;;7.94;59.96;100368.81;686531;28;136315;-69
2022/01/30 00:24:01;;;;;;;48.80;46.25;;;;;;;7.97;60.43;100365.78;687899;28;93198;-69
2022/01/30 00:24:33;;;;;;;167.07;157.77;;;;;;;7.98;60.13;100359.41;685998;28;139256;-69
2022/01/30 00:24:58;;;;;;;582.80;546.20;;;;;;;7.98;60.17;100353.16;687734;28;138399;-69
2022/01/30 00:25:30;;;;;;;1001.03;938.22;;;;;;;7.98;59.70;100355.84;687879;28;91998;-69
2022/01/30 00:25:52;;;;;;;994.00;932.00;;;;;;;7.96;59.51;100355.19;686983;28;136282;-69
2022/01/30 00:26:15;;;;;;;984.60;923.08;;;;;;;7.94;59.64;100353.50;688248;28;69426;-69
2022/01/30 00:26:39;;;;;;;732.20;686.30;;;;;;;7.94;59.71;100348.13;688374;28;69545;-69
2022/01/30 00:27:03;;;;;;;391.88;369.25;;;;;;;7.96;60.13;100358.72;686627;28;92181;-69
2022/01/30 00:27:30;;;;;;;580.35;546.22;;;;;;;8.03;60.43;100372.34;687713;28;68350;-69
2022/01/30 00:28:01;;;;;;;491.95;463.33;;;;;;;8.05;59.02;100373.00;684417;28;160810;-69
2022/01/30 00:28:24;;;;;;;888.97;835.35;;;;;;;8.00;58.81;100361.94;682729;28;134421;-69
2022/01/30 00:28:45;;;;;;;623.80;587.15;;;;;;;7.98;58.55;100370.16;684744;28;92291;-69
2022/01/30 00:29:09;;;;;;;676.35;634.88;;;;;;;7.95;59.06;100413.53;689722;28;22211;-69
2022/01/30 00:29:30;;;;;;;997.47;933.38;;;;;;;8.02;59.24;100341.91;688213;28;92267;-69
2022/01/30 00:29:52;;;;;;;1005.72;940.25;;;;;;;8.05;59.13;100335.34;690281;28;22378;-69
2022/01/30 00:30:14;;;;;;;619.38;580.28;;;;;;;8.04;58.92;100345.28;690418;28;23476;-69
2022/01/30 00:30:36;;;;;;;643.83;602.72;;;;;;;7.99;58.53;100355.69;688934;28;69421;-69
2022/01/30 00:30:58;;;;;;;988.95;923.80;;;;;;;7.97;58.23;100354.19;691860;28;1513;-69
2022/01/30 00:31:20;;;;;;;749.88;700.55;;;;;;;7.90;58.29;100338.75;687693;28;46433;-69
2022/01/30 00:31:42;;;;;;;401.67;376.02;;;;;;;7.89;58.37;100361.25;685333;28;69208;-69
2022/01/30 00:32:04;;;;;;;547.13;511.38;;;;;;;7.88;58.67;100353.34;685827;28;45249;-69
2022/01/30 00:32:26;;;;;;;340.75;320.55;;;;;;;7.87;58.97;100349.84;683988;28;23966;-69
2022/01/30 00:32:47;;;;;;;588.03;553.30;;;;;;;7.86;58.81;100355.38;680724;29;44256;-69
2022/01/30 00:33:10;;;;;;;730.22;684.60;;;;;;;7.83;58.80;100345.78;681268;28;69453;-70
2022/01/30 00:33:31;;;;;;;884.88;827.67;;;;;;;7.83;59.12;100353.84;685762;28;21116;-69
2022/01/30 00:33:53;;;;;;;460.52;429.80;;;;;;;7.81;59.38;100344.31;687591;28;22378;-69
2022/01/30 00:34:14;;;;;;;49.95;47.22;;;;;;;7.83;59.04;100344.97;688823;28;46448;-69
2022/01/30 00:34:35;;;;;;;283.42;265.92;;;;;;;7.83;59.27;100344.97;688116;28;21340;-69
2022/01/30 00:34:56;;;;;;;384.20;360.40;;;;;;;7.81;59.35;100377.41;684129;28;22402;-69
2022/01/30 00:35:18;;;;;;;993.97;930.33;;;;;;;7.85;59.67;100364.44;685622;28;21551;-69
2022/01/30 00:35:39;;;;;;;817.35;764.85;;;;;;;7.93;60.15;100367.97;681362;28;44364;-69
2022/01/30 00:36:00;;;;;;;622.15;582.00;;;;;;;7.96;59.69;100361.41;682501;28;22412;-69
2022/01/30 00:36:22;;;;;;;345.67;323.35;;;;;;;7.97;58.97;100351.50;677053;28;46294;-69
2022/01/30 00:36:43;;;;;;;818.03;766.67;;;;;;;7.93;58.75;100376.06;678212;29;44057;-69
2022/01/30 00:37:05;;;;;;;526.05;493.30;;;;;;;7.92;59.08;100338.56;681498;28;22398;-69
2022/01/30 00:37:26;;;;;;;250.45;236.30;;;;;;;7.93;58.97;100356.38;681823;28;21523;-69
2022/01/30 00:37:51;;;;;;;146.00;139.00;;;;;;;7.92;59.28;100366.28;682396;28;69525;-69
2022/01/30 00:38:15;;;;;;;114.45;109.05;;;;;;;7.94;59.65;100355.38;684254;28;70228;-69
2022/01/30 00:38:36;;;;;;;115.22;109.55;;;;;;;7.94;59.64;100358.06;685324;28;115165;-69
2022/01/30 00:38:58;;;;;;;751.25;703.38;;;;;;;7.98;59.80;100359.41;690132;28;22404;-69
2022/01/30 00:39:20;;;;;;;811.92;758.78;;;;;;;7.98;59.39;100345.97;687870;28;22402;-69
2022/01/30 00:39:42;;;;;;;278.15;263.00;;;;;;;8.02;60.04;100349.97;687013;28;45215;-69
2022/01/30 00:40:06;;;;;;;245.40;233.68;;;;;;;8.06;59.63;100350.50;686622;28;68162;-69
2022/01/30 00:40:28;;;;;;;311.33;296.45;;;;;;;8.02;59.12;100346.44;687772;28;68268;-69
2022/01/30 00:40:50;;;;;;;358.85;341.80;;;;;;;8.01;59.18;100352.84;689169;28;46387;-69
2022/01/30 00:41:12;;;;;;;238.63;227.32;;;;;;;7.95;58.97;100349.00;688728;28;45259;-69
2022/01/30 00:41:33;;;;;;;252.65;241.00;;;;;;;7.95;59.62;100381.25;689499;28;44403;-69
2022/01/30 00:41:55;;;;;;;345.67;329.70;;;;;;;7.99;59.29;100365.63;690507;28;23308;-69
2022/01/30 00:42:16;;;;;;;462.30;440.02;;;;;;;7.97;59.15;100373.03;689923;28;43956;-69
2022/01/30 00:42:37;;;;;;;428.13;407.50;;;;;;;7.94;59.17;100348.13;691200;28;23477;-69
2022/01/30 00:42:58;;;;;;;646.38;612.97;;;;;;;7.95;59.54;100354.38;687625;28;22449;-69
2022/01/30 00:43:20;;;;;;;457.75;434.73;;;;;;;7.97;59.73;100356.88;686370;28;21521;-69
2022/01/30 00:43:41;;;;;;;326.52;311.27;;;;;;;7.93;59.41;100356.38;687245;28;8659;-69
2022/01/30 00:44:04;;;;;;;481.27;457.83;;;;;;;7.95;59.69;100359.75;683188;28;67471;-69
2022/01/30 00:44:25;;;;;;;406.67;387.05;;;;;;;7.98;60.20;100347.78;687512;28;21514;-69
2022/01/30 00:44:47;;;;;;;521.63;496.27;;;;;;;8.00;60.00;100360.06;687966;28;22405;-69
2022/01/30 00:45:09;;;;;;;324.75;309.35;;;;;;;8.03;60.13;100372.34;686444;28;44395;-69
2022/01/30 00:45:30;;;;;;;466.58;443.42;;;;;;;8.04;59.08;100365.94;687448;28;45228;-69
2022/01/30 00:45:52;;;;;;;583.95;554.75;;;;;;;8.04;58.78;100369.50;685580;28;22396;-69
2022/01/30 00:46:13;;;;;;;544.05;517.65;;;;;;;8.04;58.98;100355.19;683718;28;45338;-69
2022/01/30 00:46:35;;;;;;;471.60;449.13;;;;;;;8.05;58.54;100362.25;684197;28;46342;-69
2022/01/30 00:46:58;;;;;;;490.00;466.33;;;;;;;8.02;58.90;100355.34;683099;28;22211;-69
2022/01/30 00:47:20;;;;;;;498.33;474.33;;;;;;;8.04;58.84;100376.69;679062;28;67464;-69
2022/01/30 00:47:42;;;;;;;508.35;483.83;;;;;;;8.01;58.51;100356.38;680515;28;69726;-69
2022/01/30 00:48:04;;;;;;;526.35;500.52;;;;;;;7.99;58.63;100349.47;682344;28;21311;-69
2022/01/30 00:48:26;;;;;;;608.30;577.72;;;;;;;7.97;58.55;100373.03;681961;28;44318;-69
2022/01/30 00:48:47;;;;;;;500.13;475.38;;;;;;;7.93;58.61;100357.22;678164;29;46372;-69
2022/01/30 00:49:08;;;;;;;323.88;308.20;;;;;;;7.90;58.26;100371.00;679055;29;22206;-69
2022/01/30 00:49:29;;;;;;;497.90;473.65;;;;;;;7.91;58.82;100342.25;679425;29;21542;-69
2022/01/30 00:49:51;;;;;;;521.35;496.08;;;;;;;7.87;58.91;100338.25;677803;29;46334;-69
2022/01/30 00:50:13;;;;;;;492.52;468.80;;;;;;;7.88;59.25;100347.97;679160;29;22396;-69
2022/01/30 00:50:35;;;;;;;475.13;452.60;;;;;;;7.88;59.56;100346.16;678041;29;69477;-69
2022/01/30 00:50:56;;;;;;;439.35;418.77;;;;;;;7.89;59.53;100355.88;682294;28;21543;-69
2022/01/30 00:51:18;;;;;;;297.02;283.15;;;;;;;7.90;59.83;100367.50;678224;28;17204;-68
2022/01/30 00:51:40;;;;;;;204.13;194.63;;;;;;;7.93;60.03;100354.53;680388;28;46536;-69
2022/01/30 00:52:01;;;;;;;436.15;410.23;;;;;;;7.99;59.66;100377.22;680224;28;46363;-69
2022/01/30 00:52:22;;;;;;;993.65;928.38;;;;;;;7.99;59.51;100336.88;684478;28;22401;-69
2022/01/30 00:52:49;;;;;;;970.22;905.70;;;;;;;8.02;59.69;100359.91;684330;28;23622;-69
2022/01/30 00:53:11;;;;;;;851.65;795.88;;;;;;;8.04;60.23;100344.44;684281;28;139193;-69
2022/01/30 00:53:33;;;;;;;1006.25;941.00;;;;;;;8.07;60.18;100362.91;686715;28;46362;-69
2022/01/30 00:53:55;;;;;;;866.63;810.88;;;;;;;8.09;60.49;100350.16;686872;28;46642;-69
2022/01/30 00:54:16;;;;;;;1015.57;949.70;;;;;;;8.09;60.20;100359.06;687066;28;45256;-69
2022/01/30 00:54:37;;;;;;;649.38;607.92;;;;;;;8.06;60.16;100356.69;686572;28;47162;-69
2022/01/30 00:54:58;;;;;;;977.85;915.92;;;;;;;8.07;60.16;100344.09;685184;28;22422;-69
2022/01/30 00:55:19;;;;;;;1011.88;946.47;;;;;;;8.04;59.88;100358.72;685108;28;23432;-69
2022/01/30 00:55:41;;;;;;;974.97;911.78;;;;;;;8.03;59.59;100362.41;688585;28;22198;-68
2022/01/30 00:56:03;;;;;;;826.03;772.95;;;;;;;8.01;59.12;100347.44;686767;28;46354;-69
2022/01/30 00:56:24;;;;;;;996.30;932.50;;;;;;;7.99;59.22;100352.16;686295;28;46439;-69
2022/01/30 00:56:45;;;;;;;976.58;913.85;;;;;;;7.97;59.60;100348.81;686741;28;22316;-69
2022/01/30 00:57:06;;;;;;;989.00;924.90;;;;;;;7.94;59.41;100348.13;689351;28;21178;-69
2022/01/30 00:57:29;;;;;;;624.40;583.72;;;;;;;7.92;59.60;100336.72;686381;28;21641;-69
2022/01/30 00:57:50;;;;;;;6.32;6.10;;;;;;;7.92;59.65;100344.78;683582;28;46107;-69
2022/01/30 00:58:11;;;;;;;18.85;18.15;;;;;;;7.93;59.95;100357.22;684958;28;45238;-69
2022/01/30 00:58:34;;;;;;;4.63;4.47;;;;;;;7.92;59.41;100365.47;682789;28;45279;-69
2022/01/30 00:58:56;;;;;;;3.35;3.25;;;;;;;7.90;59.62;100354.03;679639;28;68449;-69
2022/01/30 00:59:17;;;;;;;3.35;3.25;;;;;;;7.89;59.74;100350.50;678342;29;23391;-69
2022/01/30 00:59:38;;;;;;;1.63;1.63;;;;;;;7.88;60.01;100364.09;679535;29;22402;-69
2022/01/30 01:00:00;;;;;;;1.50;1.50;;;;;;;7.90;59.69;100332.53;680238;29;23510;-69
2022/01/30 01:00:22;;;;;;;1.40;1.40;;;;;;;7.87;60.14;100341.78;681158;28;45297;-69
2022/01/30 01:00:44;;;;;;;1.30;1.30;;;;;;;7.88;60.12;100338.09;682342;28;46381;-69
2022/01/30 01:01:05;;;;;;;1.50;1.50;;;;;;;7.88;60.26;100330.00;685537;28;44039;-69
2022/01/30 01:01:26;;;;;;;408.15;382.52;;;;;;;7.87;59.93;100339.09;688689;28;22412;-69
2022/01/30 01:01:47;;;;;;;968.97;905.60;;;;;;;7.86;59.64;100340.06;690542;28;1766;-69
2022/01/30 01:02:10;;;;;;;924.05;862.85;;;;;;;7.87;60.19;100344.47;684703;28;30731;-69
2022/01/30 01:02:32;;;;;;;917.33;857.42;;;;;;;7.89;60.38;100355.88;684968;28;42743;-69
2022/01/30 01:02:53;;;;;;;975.95;912.20;;;;;;;7.92;60.34;100328.66;686437;28;46513;-68
2022/01/30 01:03:17;;;;;;;315.65;295.40;;;;;;;7.91;60.20;100343.09;680528;29;19704;-68
2022/01/30 01:03:38;;;;;;;49.10;46.90;;;;;;;7.89;60.31;100326.28;678990;28;92901;-70
2022/01/30 01:04:00;;;;;;;45.20;43.20;;;;;;;7.86;60.15;100341.94;678885;29;47334;-68
2022/01/30 01:04:21;;;;;;;51.85;49.55;;;;;;;7.85;60.22;100330.34;681166;28;46131;-68
2022/01/30 01:04:45;;;;;;;67.95;64.82;;;;;;;7.87;60.43;100335.56;680635;29;46310;-68
2022/01/30 01:05:06;;;;;;;36.72;35.08;;;;;;;7.84;60.25;100333.22;682769;28;46289;-68
2022/01/30 01:05:29;;;;;;;23.08;22.10;;;;;;;7.84;60.64;100338.59;682184;28;40596;-68
2022/01/30 01:05:52;;;;;;;664.97;626.58;;;;;;;7.84;60.42;100338.59;682705;28;69372;-68
2022/01/30 01:06:13;;;;;;;932.77;876.03;;;;;;;7.82;59.86;100336.06;681319;28;70036;-68
2022/01/30 01:06:36;;;;;;;988.42;923.55;;;;;;;7.85;60.12;100342.94;683488;28;44419;-68
2022/01/30 01:06:57;;;;;;;1000.55;934.15;;;;;;;7.82;59.53;100345.97;681926;28;69403;-68
2022/01/30 01:07:22;;;;;;;984.63;918.88;;;;;;;7.81;59.86;100331.69;683887;28;22431;-68
2022/01/30 01:07:46;;;;;;;865.10;807.72;;;;;;;7.76;59.87;100329.50;680384;28;115129;-69
2022/01/30 01:08:13;;;;;;;176.57;166.15;;;;;;;7.80;60.03;100331.84;682379;28;69425;-69
2022/01/30 01:08:48;;;;;;;77.38;73.88;;;;;;;7.81;60.51;100350.50;677826;28;161016;-69
2022/01/30 01:09:11;;;;;;;115.78;110.43;;;;;;;7.86;60.49;100339.25;682986;28;137343;-68
2022/01/30 01:09:37;;;;;;;109.22;104.25;;;;;;;7.79;59.86;100341.78;683415;28;68375;-68
2022/01/30 01:10:05;;;;;;;86.35;82.43;;;;;;;7.77;59.77;100327.66;681661;28;139061;-68
2022/01/30 01:10:33;;;;;;;84.05;80.20;;;;;;;7.76;59.78;100342.94;679015;28;138403;-68
2022/01/30 01:11:00;;;;;;;109.25;104.25;;;;;;;7.73;59.82;100340.59;679787;28;137981;-68
2022/01/30 01:11:54;;;;;;;110.90;105.80;;;;;;;7.70;59.19;100345.47;681294;28;137661;-68
2022/01/30 01:12:38;;;;;;;923.13;863.90;;;;;;;7.69;59.92;100324.97;683109;28;135953;-68
2022/01/30 01:23:25;;;;;;;320.33;302.10;;;;;;;7.86;58.81;100310.50;675023;29;136120;-68
2022/01/30 01:23:50;;;;;;;804.13;751.92;;;;;;;7.88;58.67;100307.66;681241;28;103386;-68
2022/01/30 01:24:12;;;;;;;955.35;892.47;;;;;;;7.89;58.82;100302.09;686580;28;115077;-68
2022/01/30 01:24:34;;;;;;;690.55;646.60;;;;;;;7.93;58.55;100318.72;686858;28;22383;-68
2022/01/30 01:24:55;;;;;;;740.20;691.60;;;;;;;7.89;58.18;100312.03;684175;28;44327;-68
2022/01/30 01:25:16;;;;;;;805.92;753.78;;;;;;;7.88;58.16;100299.56;687614;28;22390;-68
2022/01/30 01:25:38;;;;;;;782.05;731.45;;;;;;;7.86;58.51;100313.19;687706;28;45158;-69
2022/01/30 01:26:01;;;;;;;536.80;503.77;;;;;;;7.86;58.49;100296.22;687617;28;23440;-69
2022/01/30 01:26:23;;;;;;;229.05;216.48;;;;;;;7.88;58.64;100319.25;686989;28;69449;-69
2022/01/30 01:26:45;;;;;;;122.75;117.13;;;;;;;7.87;58.73;100300.59;688996;28;67493;-68
2022/01/30 01:27:07;;;;;;;124.30;118.60;;;;;;;7.82;58.07;100311.00;691694;28;21542;-68
2022/01/30 01:27:28;;;;;;;200.60;190.35;;;;;;;7.82;58.21;100311.00;691804;28;46364;-69
2022/01/30 01:27:49;;;;;;;768.47;719.30;;;;;;;7.82;58.30;100321.75;691342;28;43996;-69
2022/01/30 01:28:10;;;;;;;873.33;816.05;;;;;;;7.78;57.90;100315.91;691234;28;23504;-69
2022/01/30 01:28:32;;;;;;;692.00;647.78;;;;;;;7.75;57.78;100306.31;690852;28;22365;-69
2022/01/30 01:28:54;;;;;;;814.28;761.50;;;;;;;7.76;58.43;100313.38;687701;28;46451;-69
2022/01/30 01:29:15;;;;;;;421.73;395.67;;;;;;;7.77;57.95;100311.50;685760;28;46302;-69
2022/01/30 01:29:38;;;;;;;73.07;69.80;;;;;;;7.75;58.38;100319.75;683881;28;23498;-68
2022/01/30 01:29:59;;;;;;;77.88;74.40;;;;;;;7.78;58.95;100310.50;682166;28;46353;-68
2022/01/30 01:30:20;;;;;;;101.47;96.88;;;;;;;7.79;58.89;100333.72;683487;28;21253;-68
2022/01/30 01:30:41;;;;;;;175.23;165.50;;;;;;;7.80;59.13;100310.34;686218;28;22354;-68
2022/01/30 01:31:03;;;;;;;599.90;560.88;;;;;;;7.74;58.84;100311.84;685577;28;22394;-68
2022/01/30 01:31:25;;;;;;;868.35;811.08;;;;;;;7.77;58.66;100324.97;686011;28;69896;-68
2022/01/30 01:31:46;;;;;;;781.10;730.65;;;;;;;7.76;59.09;100313.38;690530;28;23495;-68
2022/01/30 01:32:08;;;;;;;846.50;791.28;;;;;;;7.76;58.42;100312.53;688929;28;23491;-68
2022/01/30 01:32:30;;;;;;;929.88;867.83;;;;;;;7.75;58.67;100311.69;683311;28;46324;-68
2022/01/30 01:32:51;;;;;;;657.95;616.22;;;;;;;7.76;58.80;100324.13;684329;28;47019;-68
2022/01/30 01:33:12;;;;;;;735.63;688.42;;;;;;;7.76;59.15;100313.38;686956;28;22322;-69
2022/01/30 01:33:42;;;;;;;883.20;825.30;;;;;;;7.76;58.86;100312.53;686513;28;46223;-69
2022/01/30 01:34:18;;;;;;;930.53;867.70;;;;;;;7.74;58.84;100301.97;681966;28;138091;-68
2022/01/30 01:34:41;;;;;;;887.15;828.97;;;;;;;7.80;59.68;100316.56;682800;28;137576;-68
2022/01/30 01:35:02;;;;;;;524.63;493.20;;;;;;;7.80;59.09;100292.34;689859;28;45278;-68
2022/01/30 01:35:24;;;;;;;501.60;472.02;;;;;;;7.81;59.26;100303.97;690591;28;44176;-69
2022/01/30 01:35:46;;;;;;;957.65;894.33;;;;;;;7.80;58.99;100302.28;691104;28;24185;-69
2022/01/30 01:36:07;;;;;;;925.15;864.38;;;;;;;7.81;59.10;100314.72;691629;28;67549;-69
2022/01/30 01:36:28;;;;;;;818.45;765.42;;;;;;;7.83;59.63;100310.84;692556;28;21585;-68
2022/01/30 01:36:49;;;;;;;457.45;430.42;;;;;;;7.89;59.44;100303.97;690825;28;22250;-68
2022/01/30 01:37:12;;;;;;;562.03;526.60;;;;;;;7.91;58.54;100323.44;692511;28;22357;-68
2022/01/30 01:37:33;;;;;;;861.53;805.70;;;;;;;7.89;58.83;100323.59;687909;28;46191;-68
2022/01/30 01:37:55;;;;;;;665.08;623.65;;;;;;;7.87;58.44;100325.63;685354;28;45231;-68
2022/01/30 01:38:16;;;;;;;253.23;241.52;;;;;;;7.85;58.26;100316.91;686277;28;23276;-68
2022/01/30 01:38:39;;;;;;;644.42;603.88;;;;;;;7.86;58.56;100306.97;683303;28;46369;-69
2022/01/30 01:39:02;;;;;;;926.63;866.22;;;;;;;7.87;58.97;100303.28;682773;28;44366;-69
2022/01/30 01:39:23;;;;;;;911.13;851.50;;;;;;;7.86;58.40;100310.50;683374;28;69499;-69
2022/01/30 01:39:45;;;;;;;865.17;808.65;;;;;;;7.85;59.03;100310.66;685691;28;46316;-68
2022/01/30 01:40:08;;;;;;;870.22;813.25;;;;;;;7.83;58.34;100305.47;686819;28;46312;-68
2022/01/30 01:40:29;;;;;;;378.73;358.45;;;;;;;7.82;58.33;100313.69;688638;28;44431;-68
2022/01/30 01:40:52;;;;;;;602.20;566.55;;;;;;;7.83;58.65;100286.66;688049;28;44424;-68
2022/01/30 01:41:17;;;;;;;901.72;843.45;;;;;;;7.88;59.20;100311.19;685341;28;45262;-68
2022/01/30 01:41:39;;;;;;;878.60;822.08;;;;;;;7.96;59.60;100339.06;680461;28;137778;-68
2022/01/30 01:42:00;;;;;;;599.38;563.47;;;;;;;7.96;59.20;100312.19;684414;28;23475;-68
2022/01/30 01:42:24;;;;;;;276.05;261.63;;;;;;;7.98;59.12;100337.03;684504;28;21527;-68
2022/01/30 01:42:45;;;;;;;221.07;210.75;;;;;;;7.97;58.68;100328.13;683029;28;92153;-68
2022/01/30 01:43:06;;;;;;;447.58;422.40;;;;;;;7.90;57.98;100322.59;689278;28;23408;-68
2022/01/30 01:43:27;;;;;;;889.08;832.03;;;;;;;7.88;57.79;100310.34;690324;28;22358;-68
2022/01/30 01:43:50;;;;;;;874.58;817.03;;;;;;;7.86;58.10;100337.38;690351;28;44359;-68
2022/01/30 01:44:16;;;;;;;414.58;390.23;;;;;;;7.97;58.26;100330.81;689202;28;70213;-68
2022/01/30 01:44:42;;;;;;;601.40;565.55;;;;;;;7.99;57.91;100336.03;687760;28;115147;-69
2022/01/30 01:45:04;;;;;;;951.45;888.75;;;;;;;7.96;57.29;100339.06;685604;28;136392;-69
2022/01/30 01:45:27;;;;;;;647.33;607.13;;;;;;;7.93;57.69;100322.28;688081;28;45240;-69
2022/01/30 01:45:50;;;;;;;494.13;464.85;;;;;;;7.86;57.46;100323.94;685170;28;67470;-69
2022/01/30 01:46:16;;;;;;;848.95;793.13;;;;;;;7.88;57.11;100316.56;683946;28;90110;-69
2022/01/30 01:46:41;;;;;;;746.70;699.40;;;;;;;7.85;57.24;100340.25;683850;28;114947;-69
2022/01/30 01:47:03;;;;;;;377.77;356.35;;;;;;;7.83;57.23;100332.34;685068;28;115094;-69
2022/01/30 01:47:28;;;;;;;856.60;801.13;;;;;;;7.81;57.18;100328.16;688971;28;20227;-69
2022/01/30 01:47:51;;;;;;;686.22;642.50;;;;;;;7.80;57.29;100342.63;686595;28;138119;-68
2022/01/30 01:48:14;;;;;;;167.30;159.35;;;;;;;7.81;58.12;100326.31;690118;28;45256;-69
2022/01/30 01:48:36;;;;;;;481.85;451.83;;;;;;;7.83;58.68;100336.91;685974;28;68102;-69
2022/01/30 01:48:57;;;;;;;969.85;907.45;;;;;;;7.84;58.74;100342.09;687679;28;46785;-69
2022/01/30 01:49:26;;;;;;;954.67;893.72;;;;;;;7.84;58.49;100328.66;689296;28;22328;-69
2022/01/30 01:49:50;;;;;;;617.88;577.40;;;;;;;7.83;58.41;100321.59;683344;28;138011;-69
2022/01/30 01:50:17;;;;;;;104.55;99.68;;;;;;;7.85;59.04;100321.44;684303;28;92083;-69
2022/01/30 01:50:39;;;;;;;240.77;226.13;;;;;;;7.86;58.57;100328.50;685767;28;136628;-69
2022/01/30 01:51:07;;;;;;;478.38;449.65;;;;;;;7.88;59.31;100338.09;686319;28;115070;-69
2022/01/30 01:51:31;;;;;;;969.55;906.42;;;;;;;7.88;58.95;100327.31;685618;28;115945;-69
2022/01/30 01:52:14;;;;;;;965.22;902.03;;;;;;;7.87;58.65;100317.56;689922;28;92242;-69
2022/01/30 01:52:34;;;;;;;112.85;106.20;;;;;;;7.87;58.40;100325.63;689727;28;138243;-68
2022/01/30 01:52:55;;;;;;;58.63;56.03;;;;;;;7.85;58.13;100321.44;688714;28;46280;-68
2022/01/30 01:53:17;;;;;;;387.48;363.85;;;;;;;7.87;58.63;100387.47;684531;28;21596;-68
2022/01/30 01:53:41;;;;;;;951.55;889.30;;;;;;;7.94;58.02;100350.00;685275;28;46420;-68
2022/01/30 01:54:09;;;;;;;965.63;903.45;;;;;;;7.96;58.43;100318.38;681476;28;36911;-68
2022/01/30 01:54:32;;;;;;;931.63;870.13;;;;;;;7.80;56.99;100311.19;675083;29;160992;-68
2022/01/30 01:54:55;;;;;;;912.92;853.15;;;;;;;7.91;57.54;100326.97;680599;28;92116;-68
2022/01/30 01:55:17;;;;;;;904.22;844.60;;;;;;;7.92;58.00;100307.13;685286;28;21788;-68
2022/01/30 01:55:40;;;;;;;850.75;794.75;;;;;;;7.96;58.77;100328.31;685772;28;22414;-68
2022/01/30 01:56:03;;;;;;;160.25;151.52;;;;;;;7.93;58.42;100330.34;679085;28;114000;-68
2022/01/30 01:56:26;;;;;;;492.35;462.25;;;;;;;7.92;58.34;100300.94;681519;28;5011;-68